Time;durP1;ratioP1;P1;durP2;ratioP2;P2;SDS_P1;SDS_P2;PMS_P1;PMS_P2;Temp;Humidity;BMP_temperature;BMP_pressure;BME280_temperature;BME280_humidity;BME280_pressure;Samples;Min_cycle;Max_cycle;Signal;HPM_P1;HPM_P2
2021/11/02 00:01:18;;;;;;;6.93;3.23;;;9.30;99.90;;;;;;5034342;28;20462;-78
2021/11/02 00:03:43;;;;;;;5.50;3.40;;;9.40;99.90;;;;;;5034178;28;20850;-77
2021/11/02 00:06:09;;;;;;;5.80;2.87;;;9.30;99.90;;;;;;5034295;28;20204;-77
2021/11/02 00:08:36;;;;;;;7.63;2.70;;;9.40;99.90;;;;;;5034449;28;20172;-77
2021/11/02 00:11:03;;;;;;;5.40;2.50;;;9.40;99.90;;;;;;5034178;28;20434;-77
2021/11/02 00:13:32;;;;;;;5.90;2.43;;;9.30;99.90;;;;;;5034076;28;20505;-78
2021/11/02 00:16:04;;;;;;;4.80;2.50;;;9.30;99.90;;;;;;5035333;28;20434;-77
2021/11/02 00:18:30;;;;;;;7.03;2.80;;;9.30;99.90;;;;;;5034210;28;20430;-78
2021/11/02 00:21:00;;;;;;;5.40;2.80;;;9.30;99.90;;;;;;5033889;28;20414;-77
2021/11/02 00:23:38;;;;;;;6.97;2.40;;;9.20;99.90;;;;;;5033795;28;20502;-77
2021/11/02 00:26:10;;;;;;;4.10;1.90;;;9.20;99.90;;;;;;5034272;28;20498;-77
2021/11/02 00:28:37;;;;;;;3.50;1.67;;;9.20;99.90;;;;;;5033998;28;20441;-77
2021/11/02 00:31:03;;;;;;;3.13;1.93;;;9.30;99.90;;;;;;5033971;28;20852;-77
2021/11/02 00:33:29;;;;;;;5.83;2.20;;;9.40;99.90;;;;;;5033725;28;20415;-77
2021/11/02 00:35:56;;;;;;;7.33;1.70;;;9.50;99.90;;;;;;5033629;28;20455;-77
2021/11/02 00:38:23;;;;;;;6.67;2.30;;;9.50;99.90;;;;;;5034154;28;20794;-77
2021/11/02 00:40:48;;;;;;;4.50;1.80;;;9.50;99.90;;;;;;5034030;28;20419;-77
2021/11/02 00:43:14;;;;;;;5.97;2.27;;;9.60;99.90;;;;;;5033574;28;20462;-77
2021/11/02 00:45:41;;;;;;;9.03;1.90;;;9.60;99.90;;;;;;5033720;28;20566;-77
2021/11/02 00:48:12;;;;;;;4.00;1.77;;;9.70;99.90;;;;;;5033744;28;20446;-78
2021/11/02 00:50:40;;;;;;;9.30;1.90;;;9.70;99.90;;;;;;5033832;28;20426;-77
2021/11/02 00:53:07;;;;;;;6.20;2.10;;;9.70;99.90;;;;;;5033195;28;20895;-77
2021/11/02 00:55:35;;;;;;;3.00;1.70;;;9.60;99.90;;;;;;5033815;28;20529;-77
2021/11/02 00:58:03;;;;;;;3.57;1.70;;;9.60;99.90;;;;;;5033628;28;20422;-76
2021/11/02 01:00:29;;;;;;;3.20;1.70;;;9.70;99.90;;;;;;5033636;28;20419;-77
2021/11/02 01:02:54;;;;;;;3.70;2.10;;;9.70;99.90;;;;;;5033092;28;20545;-76
2021/11/02 01:05:20;;;;;;;3.40;1.63;;;9.70;99.90;;;;;;5033824;28;20439;-77
2021/11/02 01:07:47;;;;;;;3.43;1.97;;;9.60;99.90;;;;;;5033446;28;20264;-77
2021/11/02 01:10:16;;;;;;;4.70;1.83;;;9.60;99.90;;;;;;5033283;28;20942;-77
2021/11/02 01:12:47;;;;;;;4.40;2.57;;;9.50;99.90;;;;;;5033235;28;20881;-77
2021/11/02 01:15:15;;;;;;;4.37;1.97;;;9.50;99.90;;;;;;5033446;28;20449;-76
2021/11/02 01:17:41;;;;;;;5.70;1.80;;;9.40;99.90;;;;;;5033148;28;20778;-76
2021/11/02 01:20:09;;;;;;;4.10;1.70;;;9.40;99.90;;;;;;5033108;28;20450;-76
2021/11/02 01:22:35;;;;;;;4.53;1.90;;;9.30;99.90;;;;;;5032623;28;20705;-76
2021/11/02 01:25:01;;;;;;;3.73;1.80;;;9.20;99.90;;;;;;5033090;28;20434;-77
2021/11/02 01:27:27;;;;;;;3.53;1.70;;;9.10;99.90;;;;;;5033379;28;20419;-77
2021/11/02 01:29:52;;;;;;;2.90;1.80;;;9.10;99.90;;;;;;5032868;28;20550;-78
2021/11/02 01:32:18;;;;;;;6.47;1.70;;;9.00;99.90;;;;;;5032616;28;20184;-77
2021/11/02 01:37:34;;;;;;;2.60;1.50;;;9.00;99.90;;;;;;4993605;28;20209;-79
2021/11/02 01:40:00;;;;;;;4.70;1.60;;;8.90;99.90;;;;;;4977096;28;20468;-79
2021/11/02 01:42:29;;;;;;;3.10;1.63;;;8.90;99.90;;;;;;4976835;28;20892;-79
2021/11/02 01:44:56;;;;;;;4.70;1.60;;;8.80;99.90;;;;;;4978010;28;20439;-79
2021/11/02 01:47:23;;;;;;;3.53;1.60;;;8.70;99.90;;;;;;4992774;28;20424;-79
2021/11/02 01:49:49;;;;;;;2.90;1.50;;;8.70;99.90;;;;;;4992900;28;20421;-79
2021/11/02 01:52:15;;;;;;;4.00;2.13;;;8.60;99.90;;;;;;4992710;28;20429;-79
2021/11/02 01:54:41;;;;;;;4.10;2.00;;;8.50;99.90;;;;;;4992839;28;20769;-79
2021/11/02 01:57:07;;;;;;;6.67;2.57;;;8.50;99.90;;;;;;4993511;28;20427;-79
2021/11/02 01:59:34;;;;;;;6.53;2.30;;;8.50;99.90;;;;;;4996520;28;20507;-79
2021/11/02 02:02:08;;;;;;;4.70;1.93;;;8.50;99.90;;;;;;4996206;28;20464;-79
2021/11/02 02:04:55;;;;;;;5.13;2.23;;;8.50;99.90;;;;;;4995819;28;20421;-79
2021/11/02 02:07:33;;;;;;;4.80;2.37;;;8.50;99.90;;;;;;4995836;28;20511;-79
2021/11/02 02:10:11;;;;;;;5.30;1.77;;;8.50;99.90;;;;;;5012363;28;20421;-79
2021/11/02 02:12:49;;;;;;;5.77;2.53;;;8.40;99.90;;;;;;4996338;28;20432;-79
2021/11/02 02:15:25;;;;;;;5.00;2.10;;;8.40;99.90;;;;;;5011883;28;20511;-79
2021/11/02 02:18:02;;;;;;;3.40;1.80;;;8.20;99.90;;;;;;4996220;28;20511;-79
2021/11/02 02:20:49;;;;;;;4.60;2.10;;;8.20;99.90;;;;;;4995529;28;20425;-79
2021/11/02 02:23:26;;;;;;;5.20;2.07;;;8.20;99.90;;;;;;4995693;28;20547;-79
2021/11/02 02:26:05;;;;;;;4.30;2.00;;;8.20;99.90;;;;;;5011746;28;20544;-79
2021/11/02 02:28:38;;;;;;;3.47;1.90;;;8.10;99.90;;;;;;4995796;28;20779;-79
2021/11/02 02:31:05;;;;;;;3.27;2.10;;;8.10;99.90;;;;;;4995272;28;20797;-79
2021/11/02 02:33:45;;;;;;;4.50;2.37;;;8.00;99.90;;;;;;4996425;28;20421;-79
2021/11/02 02:36:11;;;;;;;4.60;2.17;;;8.00;99.90;;;;;;4995312;28;20564;-79
2021/11/02 02:38:41;;;;;;;4.93;2.03;;;8.00;99.90;;;;;;4995047;28;20953;-79
2021/11/02 02:41:08;;;;;;;4.53;2.37;;;7.90;99.90;;;;;;4995333;28;20834;-79
2021/11/02 02:43:43;;;;;;;3.33;1.63;;;7.90;99.90;;;;;;4994917;28;20449;-79
2021/11/02 02:46:10;;;;;;;4.60;2.20;;;7.90;99.90;;;;;;4995200;28;20944;-79
2021/11/02 02:48:39;;;;;;;4.00;1.80;;;7.90;99.90;;;;;;4995234;28;20433;-79
2021/11/02 02:51:05;;;;;;;5.07;2.03;;;7.90;99.90;;;;;;4996138;28;20985;-79
2021/11/02 02:53:32;;;;;;;4.10;2.23;;;7.90;99.90;;;;;;4995126;28;20425;-79
2021/11/02 02:56:02;;;;;;;2.53;1.50;;;7.90;99.90;;;;;;4995362;28;20437;-79
2021/11/02 02:58:34;;;;;;;2.80;1.53;;;7.90;99.90;;;;;;4995477;28;20416;-79
2021/11/02 03:01:00;;;;;;;3.80;1.40;;;7.90;99.90;;;;;;4994939;28;20478;-79
2021/11/02 03:03:26;;;;;;;3.43;1.60;;;7.90;99.90;;;;;;4995306;28;20962;-79
2021/11/02 03:05:53;;;;;;;3.00;1.77;;;7.80;99.90;;;;;;4995584;28;20480;-79
2021/11/02 03:08:23;;;;;;;3.00;1.80;;;7.90;99.90;;;;;;4995566;28;20958;-79
2021/11/02 03:10:53;;;;;;;3.50;1.47;;;7.80;99.90;;;;;;4995978;28;20429;-79
2021/11/02 03:13:20;;;;;;;2.57;1.30;;;7.90;99.90;;;;;;4996084;28;20496;-79
2021/11/02 03:43:38;;;;;;;3.33;1.30;;;8.00;99.90;;;;;;4998651;28;20946;-79
2021/11/02 04:01:57;;;;;;;3.07;1.50;;;7.90;99.90;;;;;;4997184;28;20995;-79
2021/11/02 04:24:14;;;;;;;3.77;1.70;;;7.90;99.90;;;;;;4996635;28;20464;-79
2021/11/02 04:48:51;;;;;;;4.50;2.20;;;7.60;99.90;;;;;;4998364;28;20467;-79
2021/11/02 05:51:42;;;;;;;4.20;2.53;;;7.40;99.90;;;;;;4996942;28;20478;-79
2021/11/02 05:54:26;;;;;;;4.30;1.73;;;7.40;99.90;;;;;;4995716;28;20479;-79
2021/11/02 05:59:39;;;;;;;3.57;1.60;;;7.40;99.90;;;;;;4996880;28;20503;-79
2021/11/02 06:08:32;;;;;;;3.27;1.60;;;7.40;99.90;;;;;;4997578;28;20470;-79
2021/11/02 06:28:10;;;;;;;5.53;1.60;;;7.40;99.90;;;;;;4995885;28;20800;-79
2021/11/02 06:30:41;;;;;;;5.03;3.50;;;7.40;99.90;;;;;;4994562;28;20515;-79
2021/11/02 06:33:19;;;;;;;4.93;2.20;;;7.40;99.90;;;;;;4993819;28;20468;-79
2021/11/02 08:48:29;;;;;;;5.73;2.40;;;11.20;99.90;;;;;;4998055;28;20436;-84
2021/11/02 08:50:56;;;;;;;4.43;2.23;;;11.20;99.90;;;;;;4997351;28;20852;-84
2021/11/02 08:53:23;;;;;;;5.87;2.27;;;11.20;99.90;;;;;;4995812;28;20434;-83
2021/11/02 08:55:51;;;;;;;3.97;2.10;;;11.20;99.90;;;;;;4995604;28;20943;-83
2021/11/02 08:58:24;;;;;;;5.67;2.20;;;11.10;99.90;;;;;;4997498;28;20503;-84
2021/11/02 09:00:49;;;;;;;4.20;2.53;;;11.00;99.90;;;;;;4995323;28;20425;-84
2021/11/02 09:03:29;;;;;;;5.07;3.50;;;10.90;99.90;;;;;;4994845;28;20475;-83
2021/11/02 09:05:58;;;;;;;5.00;2.23;;;10.90;99.90;;;;;;4995369;28;20197;-84
2021/11/02 09:08:27;;;;;;;4.30;1.90;;;10.90;99.90;;;;;;4996415;28;20416;-85
2021/11/02 09:10:53;;;;;;;7.70;4.30;;;10.80;99.90;;;;;;4996166;28;20633;-85
2021/11/02 09:13:23;;;;;;;7.60;2.37;;;10.80;99.90;;;;;;4996060;28;20532;-83
2021/11/02 09:15:51;;;;;;;5.80;2.63;;;10.80;99.90;;;;;;4996346;28;20217;-83
2021/11/02 09:18:19;;;;;;;3.60;2.10;;;10.70;99.90;;;;;;5010815;28;20417;-83
2021/11/02 09:20:45;;;;;;;3.53;2.37;;;10.70;99.90;;;;;;4994489;28;20433;-84
2021/11/02 09:23:11;;;;;;;4.13;2.20;;;10.70;99.90;;;;;;4993624;28;20470;-83
2021/11/02 09:25:37;;;;;;;5.33;2.50;;;10.70;99.90;;;;;;4994528;28;20413;-84
2021/11/02 09:28:04;;;;;;;5.57;2.53;;;10.60;99.90;;;;;;4996026;28;20439;-83
2021/11/02 09:30:29;;;;;;;5.13;2.73;;;10.60;99.90;;;;;;4995960;28;20209;-83
2021/11/02 09:32:56;;;;;;;4.10;2.40;;;10.50;99.90;;;;;;4995644;28;20449;-82
2021/11/02 09:35:25;;;;;;;5.83;2.40;;;10.60;99.90;;;;;;4994174;28;20193;-83
2021/11/02 09:38:00;;;;;;;7.77;2.57;;;10.70;99.90;;;;;;4995169;28;20543;-84
2021/11/02 09:40:29;;;;;;;4.20;2.40;;;10.70;99.90;;;;;;4993736;28;20431;-82
2021/11/02 09:43:31;;;;;;;4.60;2.33;;;10.70;99.90;;;;;;4994183;28;20464;-83
2021/11/02 09:46:03;;;;;;;3.67;2.57;;;10.70;99.90;;;;;;4993858;28;20471;-83
2021/11/02 09:48:55;;;;;;;5.10;2.30;;;10.60;99.90;;;;;;4994043;28;20413;-83
2021/11/02 09:51:32;;;;;;;5.67;2.83;;;10.60;99.90;;;;;;4993306;28;20924;-83
2021/11/02 09:54:09;;;;;;;4.70;2.60;;;10.60;99.90;;;;;;4993361;28;20409;-82
2021/11/02 09:56:49;;;;;;;7.60;3.63;;;10.40;99.90;;;;;;4992427;28;20523;-83
2021/11/02 09:59:51;;;;;;;6.20;2.93;;;10.30;99.90;;;;;;4992292;28;20939;-83
2021/11/02 10:02:33;;;;;;;6.03;3.67;;;10.30;99.90;;;;;;4991911;28;20542;-82
2021/11/02 10:05:41;;;;;;;8.43;3.40;;;10.20;99.90;;;;;;4991978;28;20567;-83
2021/11/02 10:08:12;;;;;;;4.43;3.03;;;10.10;99.90;;;;;;4993420;28;20512;-83
2021/11/02 10:11:01;;;;;;;7.10;2.90;;;10.00;99.90;;;;;;4992045;28;20415;-82
2021/11/02 10:13:51;;;;;;;6.50;3.47;;;10.00;99.90;;;;;;4991476;28;20413;-83
2021/11/02 10:16:51;;;;;;;5.50;3.50;;;10.00;99.90;;;;;;4982360;28;20464;-83
2021/11/02 10:19:39;;;;;;;9.23;2.93;;;10.10;99.90;;;;;;4991789;28;20420;-82
2021/11/02 10:22:48;;;;;;;6.77;2.67;;;10.10;99.90;;;;;;4992863;28;20503;-83
2021/11/02 10:25:29;;;;;;;5.77;2.00;;;10.10;99.90;;;;;;4991702;28;20963;-82
2021/11/02 10:28:13;;;;;;;5.40;1.93;;;10.10;99.90;;;;;;4993087;28;20413;-82
2021/11/02 10:31:06;;;;;;;4.17;2.20;;;10.10;99.90;;;;;;4991620;28;20439;-82
2021/11/02 10:33:37;;;;;;;5.63;2.17;;;10.10;99.90;;;;;;4991116;28;20421;-82
2021/11/02 10:36:17;;;;;;;4.10;1.83;;;10.10;99.90;;;;;;4991679;28;20440;-82
2021/11/02 10:39:06;;;;;;;8.20;2.00;;;10.10;99.90;;;;;;4992748;28;20829;-82
2021/11/02 10:42:18;;;;;;;5.10;1.70;;;10.20;99.90;;;;;;4990973;28;20491;-82
2021/11/02 10:44:49;;;;;;;3.30;1.80;;;10.40;99.90;;;;;;4983093;28;20440;-83
2021/11/02 10:47:25;;;;;;;3.23;1.63;;;10.50;99.90;;;;;;4991473;28;20439;-82
2021/11/02 10:50:12;;;;;;;2.73;1.70;;;10.60;99.90;;;;;;4992819;28;20761;-83
2021/11/02 10:52:40;;;;;;;3.53;1.43;;;10.50;99.90;;;;;;4991198;28;20440;-83
2021/11/02 10:55:23;;;;;;;4.90;2.20;;;10.60;99.90;;;;;;4991726;28;20421;-83
2021/11/02 10:58:10;;;;;;;4.23;1.60;;;10.60;99.90;;;;;;4992761;28;20443;-82
2021/11/02 11:00:36;;;;;;;5.17;1.90;;;10.60;99.90;;;;;;4991230;28;20429;-83
2021/11/02 11:03:09;;;;;;;3.80;2.37;;;10.70;99.90;;;;;;4990720;28;20595;-83
2021/11/02 11:05:36;;;;;;;6.97;3.20;;;10.70;99.90;;;;;;4992374;28;20463;-83
2021/11/02 11:08:03;;;;;;;3.80;1.83;;;10.80;99.90;;;;;;4992981;28;20423;-83
2021/11/02 11:10:30;;;;;;;3.80;2.40;;;10.90;99.90;;;;;;4992504;28;20420;-83
2021/11/02 11:12:59;;;;;;;3.20;2.27;;;11.20;99.90;;;;;;4990827;28;20436;-83
2021/11/02 11:15:33;;;;;;;3.90;2.60;;;11.30;99.90;;;;;;4992285;28;20425;-83
2021/11/02 11:18:10;;;;;;;3.97;2.23;;;11.40;99.90;;;;;;4991156;28;20432;-83
2021/11/02 11:20:37;;;;;;;7.03;2.10;;;11.40;99.90;;;;;;4992360;28;20902;-83
2021/11/02 11:23:11;;;;;;;5.60;2.47;;;11.40;99.90;;;;;;4990893;28;20465;-83
2021/11/02 11:25:51;;;;;;;3.60;2.50;;;11.80;99.90;;;;;;4992365;28;20431;-85
2021/11/02 11:28:20;;;;;;;5.50;2.40;;;12.10;99.90;;;;;;4992356;28;20478;-83
2021/11/02 11:30:47;;;;;;;5.30;2.37;;;12.40;99.90;;;;;;4991242;28;20421;-83
2021/11/02 11:33:20;;;;;;;4.03;2.60;;;12.50;99.90;;;;;;4996614;28;20425;-85
2021/11/02 11:35:49;;;;;;;6.60;2.40;;;12.50;99.90;;;;;;4994353;28;20435;-83
2021/11/02 11:38:15;;;;;;;6.00;2.47;;;12.40;99.90;;;;;;4994524;28;20440;-84
2021/11/02 11:40:43;;;;;;;4.63;2.87;;;12.60;99.90;;;;;;4994310;28;20444;-83
2021/11/02 11:43:12;;;;;;;7.70;2.23;;;12.90;99.90;;;;;;4993688;28;20551;-84
2021/11/02 11:45:42;;;;;;;4.90;2.63;;;13.20;99.90;;;;;;4993547;28;20440;-85
2021/11/02 11:48:10;;;;;;;6.60;2.93;;;13.40;99.90;;;;;;4995133;28;20830;-85
2021/11/02 11:50:47;;;;;;;3.97;2.23;;;13.60;99.90;;;;;;4996856;28;20414;-85
2021/11/02 11:53:17;;;;;;;4.20;2.57;;;13.70;99.90;;;;;;4994393;28;20420;-85
2021/11/02 11:55:48;;;;;;;6.50;2.93;;;13.40;99.90;;;;;;4998057;28;20431;-83
2021/11/02 11:58:23;;;;;;;5.33;2.80;;;13.30;99.90;;;;;;4995045;28;20428;-83
2021/11/02 12:01:41;;;;;;;3.70;2.53;;;13.10;99.90;;;;;;4994426;28;20428;-83
2021/11/02 12:04:34;;;;;;;5.17;2.73;;;12.70;99.90;;;;;;4962279;28;20495;-83
2021/11/02 12:07:09;;;;;;;5.90;3.10;;;12.30;99.90;;;;;;4994312;28;20428;-84
2021/11/02 12:09:41;;;;;;;5.53;4.70;;;12.10;99.90;;;;;;4993949;28;20417;-83
2021/11/02 12:12:08;;;;;;;4.23;3.07;;;11.90;99.90;;;;;;4995130;28;20904;-83
2021/11/02 12:14:35;;;;;;;4.67;3.47;;;11.80;99.90;;;;;;4995199;28;20412;-83
2021/11/02 12:17:02;;;;;;;4.83;2.77;;;11.90;99.90;;;;;;4994121;28;20475;-83
2021/11/02 12:19:30;;;;;;;5.03;3.37;;;12.20;99.90;;;;;;4995193;28;20409;-83
2021/11/02 12:22:08;;;;;;;6.17;3.63;;;12.60;99.90;;;;;;4993555;28;20986;-84
2021/11/02 12:24:37;;;;;;;4.13;2.73;;;12.80;99.90;;;;;;4995444;28;20488;-83
2021/11/02 12:27:19;;;;;;;7.90;3.17;;;12.70;99.90;;;;;;4995109;28;20495;-83
2021/11/02 12:29:49;;;;;;;7.30;3.20;;;12.50;99.90;;;;;;4994870;28;20463;-84
2021/11/02 12:32:17;;;;;;;5.77;2.80;;;12.40;99.90;;;;;;4993354;28;20424;-85
2021/11/02 12:35:06;;;;;;;5.40;2.93;;;12.20;99.90;;;;;;4994376;28;20866;-85
2021/11/02 12:37:34;;;;;;;4.80;2.67;;;12.00;99.90;;;;;;4996115;28;20513;-84
2021/11/02 12:40:22;;;;;;;8.10;4.00;;;11.90;99.90;;;;;;4997465;28;20950;-83
2021/11/02 12:42:48;;;;;;;5.97;3.30;;;11.70;99.90;;;;;;4996887;28;20464;-84
2021/11/02 12:45:18;;;;;;;4.80;2.87;;;11.60;99.90;;;;;;4996793;28;20445;-81
2021/11/02 12:47:46;;;;;;;4.40;2.87;;;11.60;99.90;;;;;;4995373;28;20527;-82
2021/11/02 12:50:14;;;;;;;5.33;3.00;;;11.60;99.90;;;;;;4996418;28;20417;-84
2021/11/02 12:52:44;;;;;;;4.67;3.03;;;12.20;99.90;;;;;;4994480;28;20475;-82
2021/11/02 12:55:17;;;;;;;4.70;2.70;;;13.60;99.90;;;;;;4996136;28;20413;-81
2021/11/02 12:57:47;;;;;;;3.90;2.57;;;15.50;99.90;;;;;;4994614;28;20445;-83
2021/11/02 13:00:24;;;;;;;6.37;2.70;;;15.70;99.90;;;;;;4994560;28;20936;-83
2021/11/02 13:03:04;;;;;;;4.37;2.90;;;15.50;99.90;;;;;;4994040;28;20468;-83
2021/11/02 13:05:31;;;;;;;5.00;2.70;;;15.10;99.90;;;;;;4995262;28;20483;-81
2021/11/02 13:08:08;;;;;;;4.63;2.73;;;14.50;99.90;;;;;;4996647;28;20425;-82
2021/11/02 13:10:35;;;;;;;2.90;2.10;;;14.10;99.90;;;;;;5000080;28;20420;-84
2021/11/02 13:13:11;;;;;;;4.37;2.10;;;13.60;99.90;;;;;;4999355;28;20435;-84
2021/11/02 13:15:54;;;;;;;4.30;2.20;;;13.10;99.90;;;;;;4999514;28;20451;-84
2021/11/02 13:18:29;;;;;;;5.07;3.10;;;12.70;99.90;;;;;;4999363;28;20579;-84
2021/11/02 13:21:00;;;;;;;3.27;1.90;;;12.50;99.90;;;;;;5000334;28;20429;-84
2021/11/02 13:23:40;;;;;;;4.93;2.40;;;12.30;99.90;;;;;;4998341;28;20468;-84
2021/11/02 13:26:20;;;;;;;4.60;2.37;;;12.20;99.90;;;;;;5000409;28;20827;-83
2021/11/02 13:28:46;;;;;;;4.00;2.43;;;12.00;99.90;;;;;;4999432;28;20499;-82
2021/11/02 13:31:25;;;;;;;3.53;2.20;;;11.80;99.90;;;;;;4998263;28;20417;-82
2021/11/02 13:34:02;;;;;;;4.20;2.43;;;11.60;99.90;;;;;;4998433;28;20431;-83
2021/11/02 13:39:01;;;;;;;5.20;2.70;;;11.50;99.90;;;;;;5035997;28;20538;-85
2021/11/02 13:41:35;;;;;;;3.50;2.47;;;11.40;99.90;;;;;;5040789;28;20779;-85
2021/11/02 13:44:10;;;;;;;5.07;3.07;;;11.40;99.90;;;;;;5038967;28;20426;-85
2021/11/02 13:46:40;;;;;;;7.03;3.20;;;11.40;99.90;;;;;;5040114;28;20577;-85
2021/11/02 13:49:07;;;;;;;6.67;3.50;;;11.30;99.90;;;;;;5039095;28;20450;-85
2021/11/02 13:51:33;;;;;;;6.33;3.83;;;11.30;99.90;;;;;;5038982;28;20481;-85
2021/11/02 13:54:00;;;;;;;8.07;4.37;;;11.30;99.90;;;;;;5039308;28;20898;-85
2021/11/02 13:56:31;;;;;;;8.37;4.13;;;11.20;99.90;;;;;;5037594;28;20793;-85
2021/11/02 13:58:58;;;;;;;5.10;3.70;;;11.20;99.90;;;;;;5037016;28;20519;-85
2021/11/02 14:01:46;;;;;;;6.50;4.00;;;11.20;99.90;;;;;;5037691;28;20418;-85
2021/11/02 14:04:57;;;;;;;5.23;3.30;;;11.10;99.90;;;;;;5038370;28;20443;-85
2021/11/02 14:07:44;;;;;;;3.80;2.70;;;11.00;99.90;;;;;;5037010;28;20568;-85
2021/11/02 14:10:11;;;;;;;5.77;3.20;;;10.80;99.90;;;;;;5037478;28;20768;-86
2021/11/02 14:12:55;;;;;;;4.60;2.70;;;10.70;99.90;;;;;;5037739;28;20439;-85
2021/11/02 14:15:21;;;;;;;3.10;2.07;;;10.70;99.90;;;;;;5037895;28;20411;-86
2021/11/02 14:18:09;;;;;;;3.83;1.70;;;10.60;99.90;;;;;;5035496;28;20474;-86
2021/11/02 14:20:51;;;;;;;2.57;1.47;;;10.70;99.90;;;;;;5035290;28;20188;-86
2021/11/02 14:23:31;;;;;;;2.87;1.50;;;10.90;99.90;;;;;;5035141;28;20466;-85
2021/11/02 14:26:28;;;;;;;2.40;1.10;;;11.10;99.90;;;;;;5034995;28;20419;-85
2021/11/02 14:29:06;;;;;;;3.43;1.40;;;11.30;99.90;;;;;;5030928;28;20418;-85
2021/11/02 14:31:37;;;;;;;3.30;1.90;;;11.30;99.90;;;;;;5032103;28;20749;-85
2021/11/02 14:34:10;;;;;;;4.20;2.30;;;11.30;99.90;;;;;;5032023;28;20409;-85
2021/11/02 14:36:40;;;;;;;3.80;2.30;;;11.20;99.90;;;;;;5030859;28;20419;-85
2021/11/02 14:39:13;;;;;;;4.30;1.80;;;11.10;99.90;;;;;;5031033;28;20433;-85
2021/11/02 14:41:49;;;;;;;2.40;1.20;;;11.10;99.90;;;;;;5030555;28;20925;-85
2021/11/02 14:44:15;;;;;;;2.17;0.97;;;11.10;99.90;;;;;;5030632;28;20812;-85
2021/11/02 14:46:45;;;;;;;2.80;1.10;;;11.10;99.90;;;;;;5030588;28;20429;-85
2021/11/02 14:49:32;;;;;;;2.60;1.10;;;11.00;99.90;;;;;;5030833;28;20176;-85
2021/11/02 14:52:08;;;;;;;3.23;1.30;;;10.80;99.90;;;;;;5031545;28;20418;-85
2021/11/02 14:54:40;;;;;;;2.80;1.17;;;10.80;99.90;;;;;;5031957;28;20498;-85
2021/11/02 14:57:20;;;;;;;2.37;0.90;;;10.60;99.90;;;;;;5030666;28;20446;-85
2021/11/02 15:00:07;;;;;;;2.30;1.10;;;10.60;99.90;;;;;;5032079;28;20914;-85
2021/11/02 15:02:35;;;;;;;2.63;0.93;;;10.40;99.90;;;;;;5030355;28;20461;-85
2021/11/02 15:05:05;;;;;;;5.23;1.10;;;10.30;99.90;;;;;;5030458;28;20411;-85
2021/11/02 15:07:34;;;;;;;2.90;1.03;;;10.20;99.90;;;;;;5030439;28;20446;-85
2021/11/02 15:10:05;;;;;;;3.10;1.30;;;10.00;99.90;;;;;;5030562;28;20499;-85
2021/11/02 15:12:31;;;;;;;3.47;1.27;;;10.00;99.90;;;;;;5031443;28;20979;-85
2021/11/02 15:15:44;;;;;;;2.90;1.40;;;10.00;99.90;;;;;;5030434;28;20518;-85
2021/11/02 15:18:11;;;;;;;4.63;1.43;;;10.00;99.90;;;;;;5010955;28;20242;-85
2021/11/02 15:20:37;;;;;;;3.23;1.30;;;10.00;99.90;;;;;;5030415;28;20466;-86
2021/11/02 15:23:03;;;;;;;3.23;1.80;;;10.00;99.90;;;;;;5029766;28;21048;-86
2021/11/02 15:25:29;;;;;;;2.90;1.60;;;10.10;99.90;;;;;;5030292;28;20191;-87
2021/11/02 15:28:00;;;;;;;2.50;1.10;;;10.10;99.90;;;;;;5031339;28;20960;-87
2021/11/02 15:30:26;;;;;;;4.13;1.80;;;10.20;99.90;;;;;;5035637;28;20430;-86
2021/11/02 15:32:52;;;;;;;3.67;1.57;;;10.20;99.90;;;;;;5036760;28;20418;-85
2021/11/02 15:35:25;;;;;;;3.63;1.30;;;10.10;99.90;;;;;;5036735;28;20415;-86
2021/11/02 15:38:01;;;;;;;3.63;1.57;;;10.20;99.90;;;;;;5035172;28;20212;-86
2021/11/02 15:40:37;;;;;;;2.93;1.60;;;10.20;99.90;;;;;;5037065;28;20415;-86
2021/11/02 15:43:05;;;;;;;4.60;1.70;;;10.30;99.90;;;;;;5034929;28;20817;-86
2021/11/02 15:45:36;;;;;;;4.00;1.50;;;10.30;99.90;;;;;;5035509;28;20423;-86
2021/11/02 15:48:12;;;;;;;3.60;1.60;;;10.20;99.90;;;;;;5035376;28;20447;-86
2021/11/02 15:50:45;;;;;;;4.43;2.10;;;10.20;99.90;;;;;;5036340;28;20407;-87
2021/11/02 15:53:11;;;;;;;3.23;2.00;;;10.30;99.90;;;;;;5034979;28;20991;-86
2021/11/02 15:55:38;;;;;;;3.40;2.00;;;10.30;99.90;;;;;;5035669;28;20837;-86
2021/11/02 15:58:06;;;;;;;3.50;2.00;;;10.30;99.90;;;;;;5034887;28;20960;-86
2021/11/02 16:00:34;;;;;;;2.93;1.50;;;10.30;99.90;;;;;;5035159;28;20473;-87
2021/11/02 16:03:01;;;;;;;3.27;1.70;;;10.30;99.90;;;;;;5036118;28;20464;-85
2021/11/02 16:05:32;;;;;;;3.20;1.77;;;10.30;99.90;;;;;;5036642;28;20906;-86
2021/11/02 16:08:24;;;;;;;3.57;1.63;;;10.20;99.90;;;;;;5034886;28;20434;-85
2021/11/02 16:11:10;;;;;;;3.67;2.13;;;10.10;99.90;;;;;;5034162;28;20515;-86
2021/11/02 16:13:36;;;;;;;5.63;1.80;;;10.10;99.90;;;;;;5035958;28;20461;-86
2021/11/02 16:16:05;;;;;;;4.60;2.00;;;10.10;99.90;;;;;;5034761;28;20419;-86
2021/11/02 16:18:33;;;;;;;5.90;2.90;;;10.10;99.90;;;;;;5036193;28;20967;-86
2021/11/02 16:21:04;;;;;;;4.90;2.90;;;10.10;99.90;;;;;;5036001;28;20779;-86
2021/11/02 16:23:43;;;;;;;7.37;2.67;;;10.10;99.90;;;;;;5035731;28;20565;-86
2021/11/02 16:26:28;;;;;;;7.20;2.67;;;10.20;99.90;;;;;;5034555;28;20430;-86
2021/11/02 16:29:05;;;;;;;7.03;2.17;;;10.20;99.90;;;;;;5034357;28;20422;-85
2021/11/02 16:31:31;;;;;;;7.30;2.57;;;10.10;99.90;;;;;;5034242;28;20426;-86
2021/11/02 16:33:58;;;;;;;7.23;2.30;;;10.20;99.90;;;;;;5034569;28;20925;-86
2021/11/02 16:36:37;;;;;;;5.63;2.50;;;10.10;99.90;;;;;;5033855;28;20241;-85
2021/11/02 16:39:20;;;;;;;6.60;2.87;;;10.10;99.90;;;;;;5035083;28;20481;-86
2021/11/02 16:42:07;;;;;;;5.07;2.27;;;10.00;99.90;;;;;;5033591;28;21016;-85
2021/11/02 16:44:37;;;;;;;3.97;2.10;;;9.90;99.90;;;;;;5034145;28;20522;-85
2021/11/02 16:47:06;;;;;;;3.53;2.30;;;9.90;99.90;;;;;;5036375;28;20798;-85
2021/11/02 16:49:33;;;;;;;4.23;2.30;;;9.90;99.90;;;;;;5033492;28;20455;-86
2021/11/02 16:52:07;;;;;;;4.50;2.20;;;9.90;99.90;;;;;;5033336;28;20427;-85
2021/11/02 16:54:37;;;;;;;5.50;2.50;;;9.80;99.90;;;;;;5035113;28;20423;-85
2021/11/02 16:57:22;;;;;;;3.77;2.50;;;9.80;99.90;;;;;;5034589;28;20435;-86
2021/11/02 17:00:01;;;;;;;5.07;2.23;;;9.80;99.90;;;;;;5034718;28;20944;-85
2021/11/02 17:02:41;;;;;;;5.83;2.60;;;9.90;99.90;;;;;;5032930;28;20455;-85
2021/11/02 17:05:10;;;;;;;4.60;3.20;;;10.00;99.90;;;;;;5033066;28;20510;-85
2021/11/02 17:07:50;;;;;;;4.10;2.90;;;10.00;99.90;;;;;;5032787;28;20492;-85
2021/11/02 17:10:22;;;;;;;5.00;2.67;;;10.00;99.90;;;;;;5034669;28;20403;-85
2021/11/02 17:12:50;;;;;;;4.10;2.50;;;10.00;99.90;;;;;;5032888;28;20790;-87
2021/11/02 17:15:20;;;;;;;4.60;3.27;;;10.10;99.90;;;;;;5032813;28;20423;-85
2021/11/02 17:17:47;;;;;;;5.33;2.77;;;10.00;99.90;;;;;;5034247;28;20436;-85
2021/11/02 17:20:14;;;;;;;5.27;2.97;;;10.00;99.90;;;;;;5033623;28;20897;-85
2021/11/02 17:22:40;;;;;;;4.33;2.97;;;10.10;99.90;;;;;;5032013;28;20499;-85
2021/11/02 17:25:07;;;;;;;4.10;2.97;;;10.00;99.90;;;;;;5032040;28;20569;-85
2021/11/02 17:27:34;;;;;;;4.83;3.57;;;10.10;99.90;;;;;;5033431;28;20851;-85
2021/11/02 17:30:00;;;;;;;7.60;3.60;;;10.10;99.90;;;;;;5032207;28;20406;-85
2021/11/02 17:32:29;;;;;;;5.63;4.07;;;10.10;99.90;;;;;;5033170;28;20415;-85
2021/11/02 17:34:56;;;;;;;5.17;3.90;;;10.10;99.90;;;;;;5033075;28;20184;-85
2021/11/02 17:37:23;;;;;;;7.50;4.00;;;10.10;99.90;;;;;;5031722;28;20944;-85
2021/11/02 17:39:50;;;;;;;7.23;4.40;;;10.10;99.90;;;;;;5031914;28;20514;-85
2021/11/02 17:42:17;;;;;;;6.17;4.20;;;10.10;99.90;;;;;;5032825;28;20972;-85
2021/11/02 17:44:43;;;;;;;7.10;6.20;;;10.10;99.90;;;;;;5031678;28;20451;-86
2021/11/02 17:47:13;;;;;;;7.40;4.43;;;10.10;99.90;;;;;;5032825;28;20932;-85
2021/11/02 17:49:39;;;;;;;9.50;5.70;;;10.10;99.90;;;;;;5033069;28;20175;-85
2021/11/02 17:52:08;;;;;;;8.97;6.20;;;10.10;99.90;;;;;;5030490;28;20426;-85
2021/11/02 17:54:35;;;;;;;12.30;6.30;;;10.00;99.90;;;;;;5032862;28;20468;-85
2021/11/02 17:57:01;;;;;;;10.50;7.17;;;10.00;99.90;;;;;;5031582;28;20443;-85
2021/11/02 17:59:29;;;;;;;10.50;7.70;;;9.90;99.90;;;;;;5031290;28;20414;-85
2021/11/02 18:01:55;;;;;;;9.37;6.00;;;9.90;99.90;;;;;;5032375;28;20208;-85
2021/11/02 18:04:22;;;;;;;8.00;5.13;;;9.90;99.90;;;;;;5031326;28;20451;-85
2021/11/02 18:06:48;;;;;;;7.50;5.40;;;9.90;99.90;;;;;;5032746;28;20435;-85
2021/11/02 18:09:14;;;;;;;7.37;5.17;;;9.90;99.90;;;;;;5032635;28;20418;-86
2021/11/02 18:11:43;;;;;;;6.20;4.70;;;9.90;99.90;;;;;;5032452;28;20820;-85
2021/11/02 18:14:10;;;;;;;9.87;5.10;;;9.80;99.90;;;;;;5032461;28;20413;-85
2021/11/02 18:16:38;;;;;;;5.77;4.20;;;9.80;99.90;;;;;;5032596;28;20424;-85
2021/11/02 18:19:05;;;;;;;6.33;4.47;;;9.80;99.90;;;;;;5031064;28;20413;-85
2021/11/02 18:21:31;;;;;;;6.20;4.57;;;9.70;99.90;;;;;;5030944;28;20420;-86
2021/11/02 18:24:00;;;;;;;6.20;4.90;;;9.70;99.90;;;;;;5032567;28;20438;-85
2021/11/02 18:26:26;;;;;;;7.17;5.00;;;9.70;99.90;;;;;;5032359;28;20426;-86
2021/11/02 18:28:53;;;;;;;7.00;4.57;;;9.70;99.90;;;;;;5032273;28;20398;-85